Time;durP1;ratioP1;P1;durP2;ratioP2;P2;SDS_P1;SDS_P2;PMS_P1;PMS_P2;Temp;Humidity;BMP_temperature;BMP_pressure;BME280_temperature;BME280_humidity;BME280_pressure;Samples;Min_cycle;Max_cycle;Signal;HPM_P1;HPM_P2
2021/10/16 00:00:23;;;;;;;9.80;8.90;;;9.80;64.20;;;;;;5036411;28;20203;-80
2021/10/16 00:02:49;;;;;;;9.10;8.30;;;9.90;64.50;;;;;;5035914;28;20178;-80
2021/10/16 00:05:15;;;;;;;9.00;8.20;;;9.90;65.10;;;;;;5035689;28;20199;-80
2021/10/16 00:07:40;;;;;;;9.60;8.63;;;9.90;64.30;;;;;;5035820;28;20468;-80
2021/10/16 00:10:07;;;;;;;8.50;7.70;;;9.90;64.30;;;;;;5035840;28;20785;-80
2021/10/16 00:12:33;;;;;;;9.03;8.17;;;9.90;64.30;;;;;;5035203;28;20184;-80
2021/10/16 00:14:58;;;;;;;7.97;7.20;;;10.00;62.90;;;;;;5035481;28;20418;-80
2021/10/16 00:17:24;;;;;;;7.40;6.17;;;9.90;63.80;;;;;;5034274;28;20831;-80
2021/10/16 00:19:50;;;;;;;8.83;7.93;;;9.80;64.10;;;;;;5052752;28;20165;-81
2021/10/16 00:22:20;;;;;;;8.57;7.77;;;9.80;64.80;;;;;;5053260;28;20294;-81
2021/10/16 00:24:47;;;;;;;8.83;7.93;;;9.80;64.80;;;;;;5035193;28;20175;-81
2021/10/16 00:27:13;;;;;;;9.10;8.23;;;9.80;65.00;;;;;;5052871;28;20885;-81
2021/10/16 00:29:38;;;;;;;8.67;7.97;;;9.70;65.00;;;;;;5035029;28;20505;-81
2021/10/16 00:32:04;;;;;;;8.67;7.87;;;9.70;65.60;;;;;;5035276;28;20272;-81
2021/10/16 00:34:30;;;;;;;9.17;8.30;;;9.70;65.80;;;;;;5035050;28;20321;-81
2021/10/16 00:36:55;;;;;;;8.53;7.77;;;9.70;66.20;;;;;;5035107;28;20238;-81
2021/10/16 00:39:21;;;;;;;8.10;7.50;;;9.70;67.20;;;;;;5052669;28;20182;-80
2021/10/16 00:41:47;;;;;;;11.27;8.87;;;9.70;67.70;;;;;;5036118;28;20294;-80
2021/10/16 00:44:18;;;;;;;8.60;7.80;;;9.70;67.30;;;;;;5036186;28;20492;-80
2021/10/16 00:46:46;;;;;;;9.40;8.70;;;9.80;67.30;;;;;;5053347;28;20419;-80
2021/10/16 00:49:12;;;;;;;9.07;8.17;;;9.80;67.70;;;;;;5035857;28;20434;-81
2021/10/16 00:51:39;;;;;;;8.43;7.67;;;9.80;66.00;;;;;;5035424;28;20976;-81
2021/10/16 00:54:08;;;;;;;9.97;9.07;;;9.90;66.10;;;;;;5053306;28;20411;-80
2021/10/16 00:56:38;;;;;;;6.97;6.37;;;9.90;65.80;;;;;;5035527;28;20437;-80
2021/10/16 00:59:06;;;;;;;11.30;8.93;;;9.80;65.90;;;;;;5053474;28;20821;-80
2021/10/16 01:01:33;;;;;;;9.20;7.67;;;9.80;65.30;;;;;;5035363;28;20522;-80
2021/10/16 01:04:00;;;;;;;9.37;8.53;;;9.80;65.50;;;;;;5035096;28;20410;-80
2021/10/16 01:06:26;;;;;;;8.67;7.97;;;9.80;66.00;;;;;;5035157;28;20930;-80
2021/10/16 01:08:52;;;;;;;9.13;8.10;;;9.80;66.10;;;;;;5035417;28;20510;-81
2021/10/16 01:11:25;;;;;;;8.37;7.60;;;9.70;66.10;;;;;;5035295;28;20427;-81
2021/10/16 01:13:52;;;;;;;8.80;8.00;;;9.60;64.90;;;;;;5034972;28;20411;-81
2021/10/16 01:16:20;;;;;;;9.50;8.70;;;9.70;65.70;;;;;;5035174;28;20662;-81
2021/10/16 01:18:46;;;;;;;9.03;8.33;;;9.60;65.50;;;;;;5034920;28;20780;-81
2021/10/16 01:21:13;;;;;;;8.53;7.73;;;9.60;65.60;;;;;;5034851;28;20517;-81
2021/10/16 01:23:38;;;;;;;10.17;9.17;;;9.60;66.10;;;;;;5035120;28;20958;-81
2021/10/16 01:26:06;;;;;;;9.07;8.00;;;9.70;66.80;;;;;;5035022;28;20507;-81
2021/10/16 01:28:33;;;;;;;8.63;7.83;;;9.70;66.00;;;;;;5036393;28;20414;-81
2021/10/16 01:30:59;;;;;;;9.47;8.57;;;9.70;65.70;;;;;;5039554;28;20464;-81
2021/10/16 01:33:26;;;;;;;9.60;8.70;;;9.70;65.50;;;;;;5039390;28;20910;-81
2021/10/16 01:36:05;;;;;;;9.40;8.60;;;9.70;65.20;;;;;;5038874;28;20441;-81
2021/10/16 01:38:32;;;;;;;9.63;8.93;;;9.60;65.30;;;;;;5039438;28;20422;-87
2021/10/16 01:40:59;;;;;;;9.20;8.50;;;9.60;65.40;;;;;;5038713;28;20465;-87
2021/10/16 01:43:26;;;;;;;8.60;7.43;;;9.60;65.90;;;;;;5038659;28;20468;-87
2021/10/16 01:45:52;;;;;;;9.50;8.07;;;9.70;65.90;;;;;;5038598;28;20499;-87
2021/10/16 01:48:22;;;;;;;9.93;7.97;;;9.80;65.70;;;;;;5038564;28;20445;-86
2021/10/16 01:50:49;;;;;;;8.40;7.70;;;9.80;66.00;;;;;;5038137;28;20419;-87
2021/10/16 01:53:15;;;;;;;9.27;8.40;;;9.80;65.80;;;;;;5038177;28;20976;-88
2021/10/16 01:55:41;;;;;;;9.70;8.80;;;9.80;65.60;;;;;;5038393;28;20422;-86
2021/10/16 01:58:09;;;;;;;10.13;9.20;;;9.80;66.40;;;;;;5056910;28;20415;-88
2021/10/16 02:00:35;;;;;;;9.47;8.67;;;9.80;65.60;;;;;;5038781;28;20200;-86
2021/10/16 02:03:05;;;;;;;9.50;8.70;;;9.90;65.90;;;;;;5039033;28;20446;-88
2021/10/16 02:05:31;;;;;;;8.73;7.83;;;9.90;65.60;;;;;;5038718;28;20509;-88
2021/10/16 02:07:57;;;;;;;9.00;8.10;;;9.90;66.10;;;;;;5038790;28;20442;-87
2021/10/16 02:10:22;;;;;;;9.33;8.53;;;9.90;66.30;;;;;;5038917;28;20267;-86
2021/10/16 02:12:48;;;;;;;10.87;9.00;;;10.00;65.00;;;;;;5056150;28;20188;-88
2021/10/16 02:15:13;;;;;;;9.60;8.80;;;10.00;65.10;;;;;;5038525;28;20508;-87
2021/10/16 02:17:39;;;;;;;9.97;7.77;;;10.00;65.50;;;;;;5038343;28;20178;-87
2021/10/16 02:20:05;;;;;;;11.13;10.20;;;9.90;67.00;;;;;;5038185;28;20172;-87
2021/10/16 02:22:31;;;;;;;11.63;10.57;;;9.90;67.60;;;;;;5038289;28;20180;-87
2021/10/16 02:24:57;;;;;;;12.50;8.73;;;10.00;67.10;;;;;;5054933;28;20476;-87
2021/10/16 02:27:23;;;;;;;14.17;11.07;;;10.00;66.50;;;;;;5056277;28;20168;-87
2021/10/16 02:29:49;;;;;;;12.30;11.20;;;10.00;66.40;;;;;;5038468;28;20188;-87
2021/10/16 02:32:15;;;;;;;10.57;9.67;;;10.00;66.80;;;;;;5038395;28;20423;-87
2021/10/16 02:34:41;;;;;;;9.23;7.73;;;10.00;66.60;;;;;;5037523;28;20625;-86
2021/10/16 02:37:07;;;;;;;9.00;8.20;;;10.00;66.80;;;;;;5021579;28;20231;-88
2021/10/16 02:39:33;;;;;;;9.30;8.33;;;10.00;66.00;;;;;;5037193;28;20486;-87
2021/10/16 02:41:59;;;;;;;9.50;7.63;;;10.10;65.60;;;;;;5038581;28;20277;-88
2021/10/16 02:44:26;;;;;;;9.30;8.50;;;10.10;65.60;;;;;;5038504;28;20180;-87
2021/10/16 02:46:52;;;;;;;9.23;8.50;;;10.00;64.80;;;;;;5038120;28;20468;-88
2021/10/16 02:49:17;;;;;;;8.63;7.80;;;10.00;65.40;;;;;;5056519;28;20899;-87
2021/10/16 02:51:45;;;;;;;9.13;8.33;;;10.00;65.70;;;;;;5038014;28;20202;-87
2021/10/16 02:54:11;;;;;;;9.57;8.67;;;10.00;65.40;;;;;;5038146;28;20465;-87
2021/10/16 02:56:37;;;;;;;9.43;8.63;;;10.00;65.70;;;;;;5037899;28;20469;-87
2021/10/16 02:59:02;;;;;;;9.20;8.30;;;10.00;65.70;;;;;;5036088;28;20435;-81
2021/10/16 03:01:28;;;;;;;9.93;8.93;;;10.00;65.70;;;;;;5036962;28;20253;-80
2021/10/16 03:03:54;;;;;;;8.13;7.40;;;10.00;65.60;;;;;;5037161;28;20625;-81
2021/10/16 03:06:19;;;;;;;9.57;8.40;;;10.00;64.90;;;;;;5036915;28;20628;-81
2021/10/16 03:08:45;;;;;;;10.23;9.30;;;10.00;64.80;;;;;;5036985;28;20654;-81
2021/10/16 03:11:11;;;;;;;10.70;9.60;;;9.90;66.60;;;;;;5036858;28;20202;-80
2021/10/16 03:13:38;;;;;;;13.13;10.60;;;10.00;65.50;;;;;;5054908;28;20192;-80
2021/10/16 03:16:04;;;;;;;11.20;10.20;;;10.00;66.10;;;;;;5037055;28;20426;-80
2021/10/16 03:18:30;;;;;;;10.30;9.50;;;10.00;66.30;;;;;;5036823;28;20798;-80
2021/10/16 03:20:55;;;;;;;10.60;9.50;;;9.90;68.20;;;;;;5036815;28;20461;-82
2021/10/16 03:23:21;;;;;;;11.40;10.30;;;10.00;66.70;;;;;;5036526;28;20175;-81
2021/10/16 03:25:47;;;;;;;11.43;10.33;;;10.00;66.70;;;;;;5036801;28;20411;-81
2021/10/16 03:28:13;;;;;;;10.60;9.50;;;10.00;66.90;;;;;;5035517;28;20451;-80
2021/10/16 03:30:38;;;;;;;8.67;7.80;;;10.00;66.40;;;;;;5036367;28;20621;-80
2021/10/16 03:33:05;;;;;;;9.93;9.00;;;10.10;66.10;;;;;;5036786;28;20637;-81
2021/10/16 03:35:33;;;;;;;8.97;8.23;;;10.10;66.00;;;;;;5037197;28;20176;-81
2021/10/16 03:37:59;;;;;;;11.13;10.03;;;10.10;65.80;;;;;;5035979;28;20415;-81
2021/10/16 03:40:24;;;;;;;9.60;8.70;;;10.00;66.10;;;;;;5036731;28;20529;-81
2021/10/16 03:42:50;;;;;;;10.20;8.40;;;10.10;65.20;;;;;;5036302;28;20191;-80
2021/10/16 03:45:16;;;;;;;8.70;7.90;;;10.10;65.70;;;;;;5036372;28;20180;-80
2021/10/16 03:47:42;;;;;;;10.73;9.77;;;10.10;65.40;;;;;;5035909;28;20187;-80
2021/10/16 03:50:08;;;;;;;11.80;10.50;;;10.10;65.00;;;;;;5036481;28;20199;-81
2021/10/16 03:52:34;;;;;;;12.90;11.00;;;10.00;65.60;;;;;;5036017;28;20176;-80
2021/10/16 03:55:00;;;;;;;10.53;9.70;;;10.00;64.50;;;;;;5036773;28;20469;-80
2021/10/16 03:57:26;;;;;;;9.70;8.80;;;10.00;64.60;;;;;;5036550;28;20919;-80
2021/10/16 03:59:51;;;;;;;10.60;9.60;;;10.00;64.70;;;;;;5036525;28;20186;-80
2021/10/16 04:02:18;;;;;;;10.63;9.63;;;10.00;64.80;;;;;;5036216;28;20832;-80
2021/10/16 04:04:45;;;;;;;10.60;9.57;;;10.00;65.70;;;;;;5036574;28;20178;-80
2021/10/16 04:07:11;;;;;;;10.53;9.53;;;10.10;65.30;;;;;;5036157;28;20461;-80
2021/10/16 04:09:36;;;;;;;10.80;9.47;;;10.00;64.70;;;;;;5036108;28;20489;-87
2021/10/16 04:12:03;;;;;;;11.30;9.17;;;10.00;64.10;;;;;;5036500;28;20430;-88
2021/10/16 04:14:28;;;;;;;10.17;9.33;;;10.00;64.70;;;;;;5036880;28;20191;-88
2021/10/16 04:16:55;;;;;;;11.00;10.00;;;10.00;64.60;;;;;;5036535;28;20422;-86
2021/10/16 04:19:21;;;;;;;9.80;8.80;;;9.90;64.80;;;;;;5036930;28;20184;-87
2021/10/16 04:21:46;;;;;;;9.67;8.30;;;9.90;66.20;;;;;;5036701;28;20485;-87
2021/10/16 04:24:12;;;;;;;11.23;10.27;;;9.80;66.30;;;;;;5036601;28;20176;-87
2021/10/16 04:26:38;;;;;;;10.33;9.43;;;9.80;66.50;;;;;;5036386;28;20175;-86
2021/10/16 04:29:04;;;;;;;10.73;9.63;;;9.80;67.00;;;;;;5036441;28;20263;-86
2021/10/16 04:31:29;;;;;;;10.30;9.30;;;9.80;66.90;;;;;;5036242;28;20180;-85
2021/10/16 04:33:55;;;;;;;12.83;10.83;;;9.80;67.30;;;;;;5037108;28;20424;-86
2021/10/16 04:36:21;;;;;;;10.93;10.00;;;9.80;67.10;;;;;;5036308;28;20275;-87
2021/10/16 04:38:48;;;;;;;11.03;10.00;;;9.90;67.50;;;;;;5035983;28;20188;-87
2021/10/16 04:41:15;;;;;;;11.23;10.17;;;9.90;67.40;;;;;;5036539;28;20563;-87
2021/10/16 04:43:41;;;;;;;12.17;10.80;;;9.90;67.80;;;;;;5054516;28;20415;-87
2021/10/16 04:46:11;;;;;;;10.10;9.07;;;9.90;67.20;;;;;;5035784;28;20827;-87
2021/10/16 04:48:38;;;;;;;10.40;9.50;;;10.00;66.10;;;;;;5035109;28;20479;-87
2021/10/16 04:51:05;;;;;;;12.10;11.00;;;10.00;66.20;;;;;;5053545;28;20410;-87
2021/10/16 04:53:31;;;;;;;9.13;8.23;;;9.90;66.60;;;;;;5034895;28;20410;-86
2021/10/16 04:55:56;;;;;;;12.00;10.80;;;9.90;67.70;;;;;;5035229;28;20804;-86
2021/10/16 04:58:22;;;;;;;12.17;9.67;;;9.90;67.80;;;;;;5052716;28;20183;-87
2021/10/16 05:00:47;;;;;;;12.07;11.00;;;9.90;67.70;;;;;;5035334;28;20203;-87
2021/10/16 05:03:13;;;;;;;12.87;11.67;;;9.90;67.80;;;;;;5036718;28;20176;-81
2021/10/16 05:05:39;;;;;;;9.70;8.70;;;9.90;68.30;;;;;;5039044;28;20275;-81
2021/10/16 05:08:05;;;;;;;13.17;10.90;;;9.90;68.60;;;;;;5038909;28;20182;-81
2021/10/16 05:10:30;;;;;;;17.43;11.53;;;9.90;68.70;;;;;;5038927;28;20636;-80
2021/10/16 05:12:56;;;;;;;13.33;11.90;;;9.90;68.80;;;;;;5039490;28;20495;-81
2021/10/16 05:15:22;;;;;;;13.10;10.40;;;9.90;68.80;;;;;;5057528;28;20535;-81
2021/10/16 05:17:47;;;;;;;11.93;10.83;;;9.90;68.80;;;;;;5039875;28;20262;-81
2021/10/16 05:20:13;;;;;;;11.70;10.60;;;10.00;67.70;;;;;;5039433;28;20176;-81
2021/10/16 05:22:39;;;;;;;12.10;10.90;;;10.00;67.70;;;;;;5057315;28;20530;-81
2021/10/16 05:25:05;;;;;;;12.50;11.20;;;10.00;67.20;;;;;;5039551;28;20180;-81
2021/10/16 05:27:30;;;;;;;12.97;11.83;;;10.00;68.20;;;;;;5038524;28;20207;-81
2021/10/16 05:29:56;;;;;;;11.73;10.57;;;10.10;68.50;;;;;;5039061;28;20488;-81
2021/10/16 05:32:21;;;;;;;13.40;12.10;;;10.10;67.50;;;;;;5039041;28;20176;-81
2021/10/16 05:34:47;;;;;;;12.80;10.80;;;10.10;66.20;;;;;;5038850;28;20548;-81
2021/10/16 05:37:13;;;;;;;12.80;11.50;;;10.10;66.40;;;;;;5038700;28;20665;-81
2021/10/16 05:39:38;;;;;;;13.17;11.87;;;10.10;66.50;;;;;;5039143;28;20187;-81
2021/10/16 05:42:05;;;;;;;13.50;10.67;;;10.00;66.40;;;;;;5038601;28;20218;-81
2021/10/16 05:44:30;;;;;;;14.07;12.57;;;10.00;66.10;;;;;;5037798;28;20545;-80
2021/10/16 05:46:56;;;;;;;15.07;10.67;;;10.00;66.50;;;;;;5038297;28;20423;-81
2021/10/16 05:49:22;;;;;;;16.03;12.07;;;10.00;66.30;;;;;;5038175;28;20267;-81
2021/10/16 05:51:47;;;;;;;11.93;10.80;;;10.00;66.40;;;;;;5038439;28;20621;-81
2021/10/16 05:54:13;;;;;;;12.00;11.07;;;10.00;65.80;;;;;;5038760;28;20275;-81
2021/10/16 05:56:38;;;;;;;12.50;11.40;;;10.00;66.10;;;;;;5038592;28;20704;-81
2021/10/16 05:59:04;;;;;;;11.10;10.00;;;10.00;65.90;;;;;;5039146;28;20219;-80
2021/10/16 06:01:30;;;;;;;10.70;9.80;;;10.00;66.10;;;;;;5038875;28;20279;-80
2021/10/16 06:03:55;;;;;;;10.97;9.97;;;9.90;66.40;;;;;;5038896;28;20180;-80
2021/10/16 06:06:21;;;;;;;10.93;10.03;;;9.90;67.50;;;;;;5038677;28;20200;-80
2021/10/16 06:08:47;;;;;;;11.50;10.30;;;9.90;67.40;;;;;;5038185;28;20180;-80
2021/10/16 06:11:12;;;;;;;12.10;10.93;;;9.80;66.90;;;;;;5039169;28;20180;-80
2021/10/16 06:13:38;;;;;;;12.50;11.40;;;9.70;67.20;;;;;;5037492;28;20283;-80
2021/10/16 06:16:04;;;;;;;11.50;10.30;;;9.80;67.10;;;;;;5037921;28;20187;-80
2021/10/16 06:18:29;;;;;;;12.80;11.60;;;9.70;67.60;;;;;;5037673;28;20547;-80
2021/10/16 06:20:55;;;;;;;11.17;10.20;;;9.80;67.80;;;;;;5039027;28;20522;-80
2021/10/16 06:23:21;;;;;;;12.77;11.43;;;9.70;67.50;;;;;;5038774;28;20172;-81
2021/10/16 06:25:46;;;;;;;12.37;11.10;;;9.60;67.80;;;;;;5037791;28;20566;-80
2021/10/16 06:28:14;;;;;;;13.30;12.20;;;9.50;68.60;;;;;;5037286;28;20176;-80
2021/10/16 06:30:41;;;;;;;13.03;11.23;;;9.50;69.50;;;;;;5037215;28;20183;-80
2021/10/16 06:33:07;;;;;;;11.60;10.60;;;9.60;69.70;;;;;;5036953;28;20426;-80
2021/10/16 06:35:32;;;;;;;13.97;12.67;;;9.60;69.30;;;;;;5037854;28;20423;-81
2021/10/16 06:37:58;;;;;;;13.07;11.13;;;9.60;69.70;;;;;;5037398;28;20596;-81
2021/10/16 06:40:24;;;;;;;11.63;10.30;;;9.60;69.40;;;;;;5037657;28;20188;-81
2021/10/16 06:42:49;;;;;;;12.70;11.50;;;9.60;69.40;;;;;;5037593;28;20179;-80
2021/10/16 06:45:15;;;;;;;11.57;10.50;;;9.70;69.10;;;;;;5037348;28;20647;-81
2021/10/16 06:47:42;;;;;;;12.23;11.13;;;9.70;69.20;;;;;;5037079;28;20538;-81
2021/10/16 06:50:07;;;;;;;11.00;10.00;;;9.80;69.20;;;;;;5036817;28;20180;-81
2021/10/16 06:52:33;;;;;;;11.77;10.73;;;9.80;68.20;;;;;;5037342;28;20488;-80
2021/10/16 06:54:59;;;;;;;11.70;10.70;;;9.70;68.20;;;;;;5036638;28;20199;-79
2021/10/16 06:57:24;;;;;;;12.10;10.90;;;9.80;68.40;;;;;;5035433;28;20419;-80
2021/10/16 06:59:50;;;;;;;11.80;10.17;;;9.90;69.10;;;;;;5036390;28;20253;-80
2021/10/16 07:02:17;;;;;;;11.43;10.30;;;9.90;67.70;;;;;;5054844;28;20206;-80
2021/10/16 07:04:43;;;;;;;11.27;10.10;;;9.90;67.00;;;;;;5037203;28;20188;-80
2021/10/16 07:07:09;;;;;;;11.47;10.40;;;9.80;66.30;;;;;;5053738;28;20428;-80
2021/10/16 07:09:34;;;;;;;12.10;10.90;;;9.80;67.20;;;;;;5037264;28;20617;-80
2021/10/16 07:12:00;;;;;;;12.00;10.80;;;9.80;67.50;;;;;;5036804;28;20199;-80
2021/10/16 07:14:26;;;;;;;12.13;10.37;;;9.90;68.30;;;;;;5037162;28;20210;-80
2021/10/16 07:16:51;;;;;;;12.70;11.37;;;9.90;67.20;;;;;;5037280;28;20271;-80
2021/10/16 07:19:17;;;;;;;14.77;10.07;;;9.90;67.00;;;;;;5053059;28;20176;-80
2021/10/16 07:21:42;;;;;;;12.10;11.00;;;9.90;66.60;;;;;;5036651;28;20231;-80
2021/10/16 07:24:09;;;;;;;13.40;12.00;;;9.90;66.50;;;;;;5036516;28;20254;-87
2021/10/16 07:26:34;;;;;;;12.10;10.90;;;9.90;66.10;;;;;;5036050;28;20211;-86
2021/10/16 07:29:00;;;;;;;13.67;10.90;;;9.90;67.10;;;;;;5036811;28;20442;-86
2021/10/16 07:31:28;;;;;;;12.47;11.30;;;10.00;65.60;;;;;;5054921;28;20184;-87
2021/10/16 07:33:56;;;;;;;12.10;8.97;;;10.00;65.60;;;;;;5037421;28;20520;-87
2021/10/16 07:36:23;;;;;;;12.87;11.60;;;10.00;66.10;;;;;;5037256;28;20422;-86
2021/10/16 07:38:48;;;;;;;10.90;9.80;;;10.00;65.30;;;;;;5037264;28;20861;-87
2021/10/16 07:41:14;;;;;;;11.63;10.63;;;10.00;65.30;;;;;;5036128;28;20501;-87
2021/10/16 07:43:40;;;;;;;11.77;10.67;;;10.00;64.90;;;;;;5036413;28;20270;-87
2021/10/16 07:46:06;;;;;;;11.57;10.40;;;10.10;65.90;;;;;;5035982;28;20279;-87
2021/10/16 07:48:31;;;;;;;10.77;9.67;;;10.00;64.50;;;;;;5053970;28;20883;-87
2021/10/16 07:50:57;;;;;;;13.83;9.90;;;10.00;64.70;;;;;;5036979;28;20266;-87
2021/10/16 07:53:23;;;;;;;11.47;10.47;;;10.00;64.10;;;;;;5037945;28;20179;-88
2021/10/16 07:55:49;;;;;;;13.87;12.40;;;10.00;64.40;;;;;;5037830;28;20618;-88
2021/10/16 07:58:15;;;;;;;13.17;11.90;;;10.10;64.70;;;;;;5053838;28;20176;-81
2021/10/16 08:00:40;;;;;;;13.47;12.07;;;10.10;64.30;;;;;;5037384;28;20454;-81
2021/10/16 08:03:06;;;;;;;13.87;12.67;;;10.00;64.70;;;;;;5036702;28;20621;-80
2021/10/16 08:05:32;;;;;;;13.80;12.27;;;10.00;65.30;;;;;;5035196;28;20416;-80
2021/10/16 08:07:58;;;;;;;14.20;11.83;;;10.00;65.40;;;;;;5036448;28;20418;-80
2021/10/16 08:10:24;;;;;;;13.10;10.87;;;10.00;65.50;;;;;;5035386;28;20183;-81
2021/10/16 08:12:49;;;;;;;13.00;10.43;;;9.90;66.80;;;;;;5035708;28;20930;-81
2021/10/16 08:15:15;;;;;;;18.23;12.63;;;9.90;66.70;;;;;;5035490;28;20179;-80
2021/10/16 08:17:41;;;;;;;13.17;11.87;;;9.90;66.60;;;;;;5052712;28;20179;-80
2021/10/16 08:20:08;;;;;;;13.50;10.10;;;9.90;66.70;;;;;;5036057;28;20421;-81
2021/10/16 08:22:34;;;;;;;15.20;13.60;;;9.90;67.00;;;;;;5035819;28;20450;-81
2021/10/16 08:25:00;;;;;;;15.13;13.70;;;10.00;65.30;;;;;;5036033;28;20479;-80
2021/10/16 08:27:25;;;;;;;15.77;14.03;;;10.00;65.60;;;;;;5036432;28;20517;-80
2021/10/16 08:29:51;;;;;;;14.83;13.30;;;10.00;65.50;;;;;;5035528;28;20190;-79
2021/10/16 08:32:17;;;;;;;15.30;13.90;;;10.00;64.50;;;;;;5036407;28;20257;-80
2021/10/16 08:34:43;;;;;;;17.20;14.70;;;10.00;65.30;;;;;;5035513;28;20212;-81
2021/10/16 08:37:08;;;;;;;16.13;14.00;;;10.00;66.10;;;;;;5034388;28;20419;-80
2021/10/16 08:39:34;;;;;;;20.20;16.83;;;10.10;65.70;;;;;;5035268;28;20554;-80
2021/10/16 08:41:59;;;;;;;16.30;14.47;;;10.10;65.50;;;;;;5034833;28;20699;-81
2021/10/16 08:44:25;;;;;;;17.47;14.63;;;10.10;65.30;;;;;;5034719;28;20635;-81
2021/10/16 08:46:56;;;;;;;16.50;14.80;;;10.20;65.20;;;;;;5034952;28;20176;-81
2021/10/16 08:49:23;;;;;;;33.87;18.73;;;10.20;65.30;;;;;;5034536;28;20187;-81
2021/10/16 08:51:49;;;;;;;24.67;19.63;;;10.30;64.80;;;;;;5034944;28;20514;-81
2021/10/16 08:54:15;;;;;;;24.93;17.80;;;10.30;66.40;;;;;;5052377;28;20446;-81
2021/10/16 08:56:40;;;;;;;21.33;14.90;;;10.30;66.20;;;;;;5034489;28;20183;-81
2021/10/16 08:59:06;;;;;;;32.20;22.00;;;10.20;65.30;;;;;;5034612;28;20278;-81
2021/10/16 09:01:32;;;;;;;31.23;22.60;;;10.20;66.10;;;;;;5034697;28;20294;-81
2021/10/16 09:03:58;;;;;;;37.40;23.57;;;10.30;66.60;;;;;;5034546;28;20180;-81
2021/10/16 09:06:27;;;;;;;24.70;19.77;;;10.30;67.00;;;;;;5034881;28;20180;-81
2021/10/16 09:09:03;;;;;;;24.83;21.27;;;10.30;66.40;;;;;;5034600;28;20422;-81
2021/10/16 09:11:34;;;;;;;31.50;23.30;;;10.20;66.70;;;;;;5035160;28;20465;-80
2021/10/16 09:14:10;;;;;;;35.00;25.93;;;10.20;67.90;;;;;;5035137;28;20575;-81
2021/10/16 09:16:39;;;;;;;36.93;25.20;;;10.20;70.00;;;;;;5035025;28;20422;-81
2021/10/16 09:19:21;;;;;;;39.70;29.10;;;10.30;69.60;;;;;;5035066;28;20503;-81
2021/10/16 09:22:10;;;;;;;37.70;25.20;;;10.30;69.10;;;;;;5034751;28;20508;-81
2021/10/16 09:24:45;;;;;;;31.83;24.27;;;10.30;68.90;;;;;;5035165;28;20509;-81
2021/10/16 09:27:14;;;;;;;28.97;22.10;;;10.40;68.00;;;;;;5034808;28;20418;-81
2021/10/16 09:29:43;;;;;;;28.57;20.77;;;10.30;67.90;;;;;;5034846;28;20954;-79
2021/10/16 09:32:14;;;;;;;28.93;20.90;;;10.30;67.90;;;;;;5034879;28;20426;-80
2021/10/16 09:34:48;;;;;;;25.93;20.40;;;10.40;68.70;;;;;;5034961;28;20830;-80
2021/10/16 09:37:14;;;;;;;27.87;21.37;;;10.40;68.50;;;;;;5034400;28;20418;-80
2021/10/16 09:39:42;;;;;;;24.17;17.93;;;10.20;68.30;;;;;;5034061;28;20427;-81
2021/10/16 09:42:09;;;;;;;23.57;18.70;;;10.30;69.50;;;;;;5052018;28;20832;-80
2021/10/16 09:44:39;;;;;;;23.43;20.33;;;10.30;68.80;;;;;;5034227;28;20418;-80
2021/10/16 09:47:18;;;;;;;21.83;17.83;;;10.40;68.40;;;;;;5034356;28;20422;-80
2021/10/16 09:49:46;;;;;;;25.53;20.07;;;10.40;68.50;;;;;;5036437;28;20425;-81
2021/10/16 09:52:14;;;;;;;25.10;19.00;;;10.40;68.80;;;;;;5037897;28;20421;-80
2021/10/16 09:54:42;;;;;;;26.47;19.03;;;10.50;68.40;;;;;;5037582;28;20418;-81
2021/10/16 09:57:10;;;;;;;25.50;21.17;;;10.50;68.00;;;;;;5037414;28;20429;-80
2021/10/16 09:59:37;;;;;;;23.87;20.20;;;10.50;67.20;;;;;;5037602;28;20424;-81
2021/10/16 10:02:05;;;;;;;26.00;19.93;;;10.40;67.50;;;;;;5037950;28;20458;-81
2021/10/16 10:04:39;;;;;;;25.77;21.73;;;10.60;68.10;;;;;;5037877;28;20922;-80
2021/10/16 10:07:06;;;;;;;20.60;18.43;;;10.70;68.00;;;;;;5037890;28;20445;-80
2021/10/16 10:09:33;;;;;;;24.40;18.40;;;10.60;66.80;;;;;;5037965;28;20418;-81
2021/10/16 10:12:00;;;;;;;21.67;18.30;;;10.70;66.80;;;;;;5038363;28;20453;-81
2021/10/16 10:14:26;;;;;;;23.97;21.07;;;10.70;66.30;;;;;;5037814;28;20457;-80
2021/10/16 10:16:54;;;;;;;23.33;20.83;;;10.80;67.30;;;;;;5037366;28;20419;-80
2021/10/16 10:19:22;;;;;;;24.63;20.10;;;10.80;66.20;;;;;;5037859;28;20636;-80
2021/10/16 10:21:48;;;;;;;21.83;19.53;;;10.80;65.50;;;;;;5037587;28;20461;-81
2021/10/16 10:24:14;;;;;;;24.80;19.87;;;10.80;65.50;;;;;;5037734;28;20419;-87
2021/10/16 10:26:42;;;;;;;23.17;17.57;;;10.90;66.10;;;;;;5055474;28;20467;-86
2021/10/16 10:29:17;;;;;;;25.73;20.43;;;10.90;65.30;;;;;;5037498;28;20202;-87
2021/10/16 10:31:58;;;;;;;23.40;21.10;;;11.00;65.50;;;;;;5038322;28;20785;-87
2021/10/16 10:34:30;;;;;;;24.00;15.80;;;11.00;65.20;;;;;;5037844;28;20430;-87
2021/10/16 10:37:01;;;;;;;26.37;21.87;;;11.10;65.10;;;;;;5037227;28;20579;-87
2021/10/16 10:39:33;;;;;;;26.13;20.47;;;11.20;64.80;;;;;;5037047;28;20919;-87
2021/10/16 10:42:14;;;;;;;25.83;22.07;;;11.20;64.00;;;;;;5037545;28;20955;-87
2021/10/16 10:44:40;;;;;;;26.83;23.67;;;11.10;63.40;;;;;;5037482;28;20986;-84
2021/10/16 10:47:29;;;;;;;27.27;23.00;;;11.10;63.80;;;;;;5037193;28;20422;-84
2021/10/16 10:50:00;;;;;;;23.17;20.60;;;11.10;62.80;;;;;;5037336;28;20425;-85
2021/10/16 10:52:28;;;;;;;25.73;22.00;;;11.20;63.30;;;;;;5037494;28;20466;-85
2021/10/16 10:55:01;;;;;;;25.33;19.60;;;11.30;62.30;;;;;;5037595;28;20543;-85
2021/10/16 10:57:49;;;;;;;28.73;21.10;;;11.40;62.30;;;;;;5036800;28;20762;-85
2021/10/16 11:00:37;;;;;;;23.13;18.47;;;11.60;62.30;;;;;;5036014;28;20426;-85
2021/10/16 11:03:45;;;;;;;24.77;22.13;;;11.90;62.20;;;;;;5037664;28;20427;-84
2021/10/16 11:06:11;;;;;;;21.80;19.60;;;11.90;59.70;;;;;;5029525;28;20493;-84
2021/10/16 11:08:37;;;;;;;20.90;17.93;;;12.00;59.50;;;;;;5036708;28;20497;-85
2021/10/16 11:11:04;;;;;;;33.57;30.07;;;12.10;58.90;;;;;;5037201;28;20184;-85
2021/10/16 11:13:33;;;;;;;22.20;19.60;;;12.10;58.60;;;;;;5037295;28;20422;-84
2021/10/16 11:16:02;;;;;;;20.50;17.67;;;12.20;58.70;;;;;;5037472;28;20476;-84
2021/10/16 11:18:28;;;;;;;19.67;16.50;;;12.30;58.80;;;;;;5036930;28;20422;-84
2021/10/16 11:21:00;;;;;;;21.97;19.00;;;12.20;57.70;;;;;;5036752;28;20507;-84
2021/10/16 11:23:26;;;;;;;19.93;17.90;;;12.30;56.60;;;;;;5036946;28;20910;-85
2021/10/16 11:26:01;;;;;;;16.97;14.27;;;12.40;56.30;;;;;;5036805;28;20414;-85
2021/10/16 11:28:29;;;;;;;18.00;15.40;;;12.40;56.50;;;;;;5054605;28;20528;-85
2021/10/16 11:30:55;;;;;;;18.57;16.77;;;12.40;55.60;;;;;;5037483;28;20862;-85
2021/10/16 11:33:24;;;;;;;16.47;14.87;;;12.20;55.20;;;;;;5036846;28;20414;-85
2021/10/16 11:35:57;;;;;;;16.57;14.87;;;12.20;56.40;;;;;;5036799;28;20453;-84
2021/10/16 11:38:25;;;;;;;16.67;14.97;;;12.30;55.40;;;;;;5036078;28;20489;-84
2021/10/16 11:40:53;;;;;;;19.10;17.13;;;12.40;56.80;;;;;;5035891;28;20467;-85
2021/10/16 11:43:22;;;;;;;21.70;16.27;;;12.40;55.30;;;;;;5036215;28;20411;-85
2021/10/16 11:45:49;;;;;;;19.10;17.33;;;12.40;55.40;;;;;;5035997;28;20999;-84
2021/10/16 11:48:18;;;;;;;19.83;17.00;;;12.40;55.80;;;;;;5036343;28;20911;-84
2021/10/16 11:50:48;;;;;;;20.40;18.40;;;12.30;55.60;;;;;;5036156;28;20443;-84
2021/10/16 11:53:20;;;;;;;18.47;16.60;;;12.30;55.20;;;;;;5036185;28;20504;-85
2021/10/16 11:55:51;;;;;;;18.90;16.77;;;12.30;56.10;;;;;;5036642;28;20505;-84
2021/10/16 11:58:19;;;;;;;20.70;18.53;;;12.30;55.10;;;;;;5036163;28;20906;-84
2021/10/16 12:00:50;;;;;;;18.87;17.03;;;12.30;55.50;;;;;;5036277;28;20834;-82
2021/10/16 12:03:28;;;;;;;16.50;14.77;;;12.40;55.30;;;;;;5036377;28;20418;-82
2021/10/16 12:05:57;;;;;;;19.40;16.27;;;12.50;55.40;;;;;;5036048;28;20497;-81
2021/10/16 12:08:30;;;;;;;16.27;14.57;;;12.40;54.60;;;;;;5036822;28;20411;-81
2021/10/16 12:11:01;;;;;;;17.97;16.37;;;12.40;54.50;;;;;;5036028;28;20769;-81
2021/10/16 12:13:36;;;;;;;18.00;15.80;;;12.40;55.10;;;;;;5035843;28;20442;-81
2021/10/16 12:16:19;;;;;;;16.50;14.80;;;12.50;56.10;;;;;;5035683;28;20914;-82
2021/10/16 12:18:57;;;;;;;15.70;14.00;;;12.60;54.80;;;;;;5036411;28;20919;-85
2021/10/16 12:21:30;;;;;;;17.03;14.77;;;12.70;55.00;;;;;;5036118;28;20461;-85
2021/10/16 12:23:58;;;;;;;24.60;17.00;;;12.80;55.20;;;;;;5036001;28;20514;-85
2021/10/16 12:26:29;;;;;;;17.83;14.83;;;12.70;53.80;;;;;;5035717;28;20407;-85
2021/10/16 12:28:57;;;;;;;15.93;14.33;;;12.70;54.10;;;;;;5036025;28;20825;-85
2021/10/16 12:31:24;;;;;;;16.37;14.17;;;12.80;54.10;;;;;;5035809;28;20468;-84
2021/10/16 12:34:00;;;;;;;15.60;14.00;;;12.80;54.60;;;;;;5036037;28;20423;-85
2021/10/16 12:36:32;;;;;;;15.83;14.17;;;12.80;53.50;;;;;;5035662;28;20425;-85